Fellsmere, Florida
Current Conditions -  °F | °C
As of 5:53 PM on Friday 28 Nov 2014 (Local Time) from KVRB Reporting Station
Few Clouds Few Clouds  
Wind Chill: 56°   Ceiling: Unl
Heat Index: 56°   Visibility: 10mi
Dew Point: 48°   Wind: 9mph
Humidity: 75%   Direction: 320°NW
Pressure: 30.22"   Gusts: NA
Location:  27.77°N, 80.6°W
Report Text: KVRB 282253Z 32008KT 10SM FEW042 13/09 A3022 RMK AO2 SLP233 T01330089
Loading
Personal Weather Stations






























Interactive Weather Map New forecast layout! Learn more

10-Day Weather Forecast

Advertisements
Track Severe Weather on mobile